Terminal Aerodrome Forecast
Issued by NWS

Home | Current Version | Previous Version | Text Only | Print | Product List | Glossary On
Versions: 1 2 3 4 5 6 7 8 9 10 11 12 13 14 15 16 17 18 19 20 21 22 23 24
000
FTAK31 PAFA 032323
TAFAOT
TAF
PAOT 032323Z 0400/0424 25005KT P6SM FEW070 SCT150
     FM040300 27006KT P6SM VCSH SCT025 BKN050
     FM040600 30006KT P6SM VCFG SCT007 BKN015 OVC025
     FM041900 29005KT P6SM SCT025 BKN080=

USA.gov is the U.S. government's official web portal to all federal, state and local government web resources and services.